createdAt,value
2018-06-28T00:01:09.250Z,67.20
2018-06-28T00:03:37.583Z,67.40
2018-06-28T00:06:06.000Z,68.10
2018-06-28T00:08:34.367Z,67.40
2018-06-28T00:11:02.741Z,67.50
2018-06-28T00:13:31.137Z,67.60
2018-06-28T00:15:59.550Z,67.90
2018-06-28T00:18:27.903Z,68.10
2018-06-28T00:20:56.306Z,68.30
2018-06-28T00:23:24.664Z,68.40
2018-06-28T00:25:53.045Z,68.60
2018-06-28T00:28:21.416Z,68.70
2018-06-28T00:30:49.785Z,68.90
2018-06-28T00:33:18.148Z,69.00
2018-06-28T00:35:46.501Z,69.00
2018-06-28T00:38:14.879Z,69.20
2018-06-28T00:40:43.248Z,69.20
2018-06-28T00:43:11.631Z,69.40
2018-06-28T00:45:40.002Z,69.50
2018-06-28T00:48:08.399Z,69.70
2018-06-28T00:50:36.785Z,69.90
2018-06-28T00:53:05.163Z,70.00
2018-06-28T00:55:33.543Z,70.00
2018-06-28T00:58:01.974Z,70.90
2018-06-28T01:00:30.349Z,70.50
2018-06-28T01:02:58.776Z,70.70
2018-06-28T01:05:27.136Z,70.80
2018-06-28T01:07:55.525Z,70.80
2018-06-28T01:10:23.897Z,70.90
2018-06-28T01:12:52.330Z,71.00
2018-06-28T01:15:20.709Z,71.10
2018-06-28T01:17:49.100Z,71.30
2018-06-28T01:20:17.432Z,71.40
2018-06-28T01:22:45.839Z,71.70
2018-06-28T01:25:14.233Z,71.90
2018-06-28T01:27:42.644Z,71.90
2018-06-28T01:30:16.725Z,72.10
2018-06-28T01:32:45.125Z,72.30
2018-06-28T01:35:13.498Z,72.40
2018-06-28T01:37:41.887Z,72.50
2018-06-28T01:40:10.255Z,72.70
2018-06-28T01:42:55.223Z,72.90
2018-06-28T01:45:23.600Z,73.10
2018-06-28T01:47:52.094Z,73.30
2018-06-28T01:50:20.506Z,73.40
2018-06-28T01:52:48.916Z,73.70
2018-06-28T01:55:17.297Z,73.70
2018-06-28T01:57:45.641Z,74.00
2018-06-28T02:00:14.041Z,74.20
2018-06-28T02:02:42.402Z,74.30
2018-06-28T02:05:10.782Z,74.40
2018-06-28T02:07:39.161Z,74.40
2018-06-28T02:10:07.645Z,74.80
2018-06-28T02:12:36.098Z,74.80
2018-06-28T02:15:05.290Z,74.80
2018-06-28T02:17:33.656Z,75.00
2018-06-28T02:20:02.053Z,75.20
2018-06-28T02:22:30.425Z,75.40
2018-06-28T02:24:58.807Z,75.50
2018-06-28T02:27:27.161Z,75.40
2018-06-28T02:29:55.567Z,75.80
2018-06-28T02:32:23.923Z,75.90
2018-06-28T02:34:52.319Z,76.20
2018-06-28T02:37:20.706Z,76.20
2018-06-28T02:39:49.187Z,76.20
2018-06-28T02:42:17.565Z,76.20
2018-06-28T02:44:45.941Z,76.20
2018-06-28T02:47:14.351Z,76.20
2018-06-28T02:49:42.719Z,76.50
2018-06-28T02:52:11.077Z,76.50
2018-06-28T02:54:39.437Z,76.60
2018-06-28T02:57:07.955Z,76.80
2018-06-28T02:59:36.422Z,77.00
2018-06-28T03:02:04.892Z,77.10
2018-06-28T03:04:34.386Z,77.30
2018-06-28T03:07:03.006Z,77.40
2018-06-28T03:09:31.382Z,77.50
2018-06-28T03:11:59.830Z,77.50
2018-06-28T03:14:28.189Z,77.50
2018-06-28T03:16:57.177Z,77.50
2018-06-28T03:19:25.555Z,77.80
2018-06-28T03:21:53.919Z,77.70
2018-06-28T03:24:22.288Z,78.60
2018-06-28T03:26:50.645Z,78.00
2018-06-28T03:29:19.024Z,78.00
2018-06-28T03:31:47.387Z,77.90
2018-06-28T03:34:15.738Z,77.90
2018-06-28T03:36:44.113Z,77.90
2018-06-28T03:39:13.753Z,77.90
2018-06-28T03:41:42.568Z,77.90
2018-06-28T03:44:12.506Z,77.80
2018-06-28T03:46:41.053Z,77.80
2018-06-28T03:49:10.346Z,77.80
2018-06-28T03:51:38.768Z,77.50
2018-06-28T03:54:08.123Z,77.50
2018-06-28T03:56:36.744Z,77.40
2018-06-28T03:59:05.245Z,77.30
2018-06-28T04:01:33.800Z,77.40
2018-06-28T04:04:02.159Z,77.60
2018-06-28T04:06:30.629Z,77.80
2018-06-28T04:08:58.938Z,77.70
2018-06-28T04:11:27.792Z,77.80
2018-06-28T04:13:56.327Z,77.80
2018-06-28T04:16:28.218Z,77.60
2018-06-28T04:18:57.450Z,77.50
2018-06-28T04:21:25.826Z,77.60
2018-06-28T04:23:54.180Z,77.30
2018-06-28T04:26:22.607Z,77.30
2018-06-28T04:28:50.988Z,77.80
2018-06-28T04:31:20.084Z,77.10
2018-06-28T04:33:48.483Z,77.00
2018-06-28T04:36:16.892Z,77.10
2018-06-28T04:38:45.274Z,76.90
2018-06-28T04:41:13.627Z,76.80
2018-06-28T04:43:42.009Z,76.60
2018-06-28T04:46:10.351Z,76.30
2018-06-28T04:48:38.888Z,76.30
2018-06-28T04:51:07.791Z,76.20
2018-06-28T04:53:36.224Z,77.10
2018-06-28T04:56:04.780Z,76.10
2018-06-28T04:58:33.224Z,76.10
2018-06-28T05:01:01.598Z,75.90
2018-06-28T05:03:29.993Z,75.80
2018-06-28T05:05:58.384Z,75.70
2018-06-28T05:08:26.781Z,75.10
2018-06-28T05:10:55.162Z,74.90
2018-06-28T05:13:23.661Z,74.60
2018-06-28T05:15:52.064Z,74.50
2018-06-28T05:18:20.484Z,74.40
2018-06-28T05:20:48.894Z,74.10
2018-06-28T05:23:17.413Z,73.60
2018-06-28T05:25:45.809Z,73.30
2018-06-28T05:28:14.214Z,72.70
2018-06-28T05:30:42.572Z,72.90
2018-06-28T05:33:11.017Z,72.20
2018-06-28T05:35:39.356Z,72.00
2018-06-28T05:38:07.781Z,71.70
2018-06-28T05:40:36.195Z,71.40
2018-06-28T05:43:04.614Z,70.80
2018-06-28T05:45:32.986Z,70.60
2018-06-28T05:48:01.377Z,70.50
2018-06-28T05:50:29.878Z,70.20
2018-06-28T05:52:58.277Z,69.70
2018-06-28T05:55:26.709Z,69.70
2018-06-28T05:57:57.186Z,69.50
2018-06-28T06:00:25.836Z,69.20
2018-06-28T06:02:54.257Z,69.00
2018-06-28T06:05:22.693Z,68.90
2018-06-28T06:07:51.160Z,68.70
2018-06-28T06:10:19.660Z,67.50
2018-06-28T06:12:48.137Z,66.80
2018-06-28T06:15:16.645Z,66.40
2018-06-28T06:17:45.066Z,66.10
2018-06-28T06:20:13.536Z,65.70
2018-06-28T06:22:42.021Z,65.50
2018-06-28T06:25:10.529Z,65.10
2018-06-28T06:27:39.120Z,65.30
2018-06-28T06:30:08.873Z,64.70
2018-06-28T06:32:37.403Z,64.60
2018-06-28T06:35:05.952Z,63.90
2018-06-28T06:37:34.403Z,63.90
2018-06-28T06:40:02.931Z,63.70
2018-06-28T06:42:31.448Z,63.00
2018-06-28T06:45:00.031Z,62.60
2018-06-28T06:47:28.594Z,61.90
2018-06-28T06:49:57.085Z,61.80
2018-06-28T06:52:25.569Z,61.50
2018-06-28T06:54:53.985Z,60.40
2018-06-28T06:57:22.364Z,59.80
2018-06-28T06:59:50.773Z,59.80
2018-06-28T07:02:19.119Z,59.70
2018-06-28T07:04:47.638Z,59.30
2018-06-28T07:07:16.054Z,59.10
2018-06-28T07:09:44.436Z,59.00
2018-06-28T07:12:12.856Z,58.80
2018-06-28T07:14:41.312Z,58.60
2018-06-28T07:17:09.698Z,57.80
2018-06-28T07:19:38.818Z,57.30
2018-06-28T07:22:07.252Z,57.30
2018-06-28T07:24:35.634Z,57.20
2018-06-28T07:27:04.077Z,56.40
2018-06-28T07:29:32.508Z,55.90
2018-06-28T07:32:00.965Z,55.70
2018-06-28T07:34:29.473Z,55.70
2018-06-28T07:36:57.932Z,55.60
2018-06-28T07:39:26.347Z,55.10
2018-06-28T07:41:54.932Z,54.60
2018-06-28T07:44:23.333Z,54.90
2018-06-28T07:46:51.798Z,54.00
2018-06-28T07:49:20.198Z,54.00
2018-06-28T07:51:48.609Z,54.00
2018-06-28T07:54:17.007Z,53.20
2018-06-28T07:56:45.517Z,52.80
2018-06-28T07:59:13.961Z,52.60
2018-06-28T08:01:42.469Z,52.40
2018-06-28T08:04:10.971Z,52.00
2018-06-28T08:06:39.422Z,51.70
2018-06-28T08:09:08.620Z,50.90
2018-06-28T08:11:37.010Z,51.20
2018-06-28T08:14:05.419Z,51.50
2018-06-28T08:16:33.832Z,51.10
2018-06-28T08:19:02.263Z,50.90
2018-06-28T08:21:30.693Z,50.60
2018-06-28T08:23:59.067Z,50.40
2018-06-28T08:26:27.461Z,50.10
2018-06-28T08:28:55.839Z,50.00
2018-06-28T08:31:24.225Z,49.70
2018-06-28T08:33:52.614Z,48.50
2018-06-28T08:36:21.082Z,48.70
2018-06-28T08:38:49.501Z,48.50
2018-06-28T08:41:17.859Z,48.50
2018-06-28T08:43:46.281Z,47.90
2018-06-28T08:46:14.674Z,47.50
2018-06-28T08:48:43.124Z,47.60
2018-06-28T08:51:11.510Z,46.90
2018-06-28T08:53:39.950Z,46.00
2018-06-28T08:56:08.496Z,45.90
2018-06-28T08:58:36.966Z,45.40
2018-06-28T09:01:05.340Z,44.30
2018-06-28T09:03:33.713Z,43.20
2018-06-28T09:06:02.146Z,42.90
2018-06-28T09:08:31.146Z,42.50
2018-06-28T09:10:59.613Z,42.50
2018-06-28T09:13:28.674Z,42.60
2018-06-28T09:15:57.938Z,42.00
2018-06-28T09:18:26.483Z,42.00
2018-06-28T09:20:54.933Z,41.40
2018-06-28T09:23:23.335Z,41.00
2018-06-28T09:25:51.771Z,40.80
2018-06-28T09:28:20.165Z,40.70
2018-06-28T09:30:48.562Z,40.60
2018-06-28T09:33:16.947Z,40.90
2018-06-28T09:35:45.399Z,40.30
2018-06-28T09:38:14.330Z,40.00
2018-06-28T09:40:43.285Z,40.30
2018-06-28T09:43:11.904Z,40.20
2018-06-28T09:45:40.315Z,40.10
2018-06-28T09:48:08.929Z,39.70
2018-06-28T09:50:37.311Z,39.20
2018-06-28T09:53:05.787Z,39.00
2018-06-28T09:55:34.203Z,39.10
2018-06-28T09:58:02.699Z,39.00
2018-06-28T10:03:04.874Z,38.70
2018-06-28T10:05:33.335Z,38.90
2018-06-28T10:08:01.747Z,38.50
2018-06-28T10:10:30.185Z,38.10
2018-06-28T10:13:04.990Z,37.60
2018-06-28T10:15:33.403Z,37.50
2018-06-28T10:18:01.859Z,37.90
2018-06-28T10:20:30.439Z,37.50
2018-06-28T10:22:58.873Z,37.40
2018-06-28T10:25:27.323Z,37.30
2018-06-28T10:27:56.239Z,37.00
2018-06-28T10:30:24.618Z,37.20
2018-06-28T10:32:52.989Z,37.60
2018-06-28T10:35:21.358Z,37.90
2018-06-28T10:37:49.782Z,38.20
2018-06-28T10:42:47.296Z,36.90
2018-06-28T10:45:15.807Z,36.80
2018-06-28T10:47:44.179Z,36.20
2018-06-28T10:50:13.011Z,36.60
2018-06-28T10:52:47.952Z,36.60
2018-06-28T10:55:16.381Z,36.60
2018-06-28T10:57:47.191Z,36.80
2018-06-28T11:00:15.873Z,36.70
2018-06-28T11:02:44.328Z,36.50
2018-06-28T11:05:12.756Z,35.90
2018-06-28T11:07:41.151Z,36.10
2018-06-28T11:10:09.585Z,36.30
2018-06-28T11:12:37.997Z,36.50
2018-06-28T11:15:06.610Z,36.30
2018-06-28T11:17:35.031Z,36.10
2018-06-28T11:20:03.516Z,34.90
2018-06-28T11:22:31.870Z,35.20
2018-06-28T11:25:00.280Z,34.60
2018-06-28T11:27:28.733Z,34.40
2018-06-28T11:29:57.135Z,34.60
2018-06-28T11:32:25.664Z,35.20
2018-06-28T11:34:54.101Z,34.30
2018-06-28T11:37:22.526Z,34.30
2018-06-28T11:39:51.021Z,34.30
2018-06-28T11:42:19.478Z,34.00
2018-06-28T11:44:48.824Z,34.20
2018-06-28T11:47:17.253Z,32.60
2018-06-28T11:49:45.762Z,32.40
2018-06-28T11:52:14.238Z,32.70
2018-06-28T11:54:42.606Z,31.90
2018-06-28T11:57:11.156Z,31.60
2018-06-28T11:59:39.594Z,32.00
2018-06-28T12:02:08.007Z,31.50
2018-06-28T12:04:36.538Z,31.90
2018-06-28T12:07:04.995Z,30.50
2018-06-28T12:09:33.409Z,30.80
2018-06-28T12:12:01.829Z,30.30
2018-06-28T12:14:30.270Z,30.30
2018-06-28T12:16:58.703Z,30.40
2018-06-28T12:19:27.143Z,29.80
2018-06-28T12:21:55.557Z,29.80
2018-06-28T12:24:23.921Z,29.20
2018-06-28T12:26:52.329Z,29.60
2018-06-28T12:29:20.752Z,29.80
2018-06-28T12:31:49.159Z,29.60
2018-06-28T12:34:17.553Z,29.40
2018-06-28T12:36:45.950Z,29.70
2018-06-28T12:39:14.560Z,29.80
2018-06-28T12:41:42.980Z,29.50
2018-06-28T12:48:03.095Z,29.50
2018-06-28T12:50:31.504Z,29.20
2018-06-28T12:53:04.121Z,29.50
2018-06-28T12:56:14.351Z,29.60
2018-06-28T12:58:42.836Z,29.60
2018-06-28T13:01:11.213Z,29.50
2018-06-28T13:03:39.627Z,28.10
2018-06-28T13:06:08.234Z,28.10
2018-06-28T13:08:37.008Z,28.20
2018-06-28T13:11:05.559Z,28.10
2018-06-28T13:13:34.360Z,28.20
2018-06-28T13:16:02.725Z,28.40
2018-06-28T13:18:31.148Z,29.20
2018-06-28T13:20:59.529Z,29.70
2018-06-28T13:23:27.924Z,29.90
2018-06-28T13:25:56.402Z,30.00
2018-06-28T13:28:24.821Z,30.70
2018-06-28T13:30:53.222Z,31.30
2018-06-28T13:33:21.590Z,31.70
2018-06-28T13:35:50.580Z,32.10
2018-06-28T13:38:19.081Z,32.40
2018-06-28T13:40:47.573Z,32.80
2018-06-28T13:43:15.843Z,33.20
2018-06-28T13:45:44.230Z,33.50
2018-06-28T13:48:13.158Z,33.50
2018-06-28T13:50:41.607Z,33.80
2018-06-28T13:53:10.085Z,34.30
2018-06-28T13:55:38.570Z,34.60
2018-06-28T13:58:06.943Z,35.00
2018-06-28T14:00:35.499Z,35.50
2018-06-28T14:03:03.910Z,35.70
2018-06-28T14:05:32.310Z,36.10
2018-06-28T14:08:00.701Z,36.70
2018-06-28T14:10:29.111Z,37.10
2018-06-28T14:12:57.586Z,37.00
2018-06-28T14:15:27.002Z,37.20
2018-06-28T14:17:58.018Z,37.30
2018-06-28T14:20:26.430Z,37.40
2018-06-28T14:22:54.847Z,37.60
2018-06-28T14:25:23.257Z,37.20
2018-06-28T14:27:51.717Z,36.30
2018-06-28T14:30:20.128Z,35.70
2018-06-28T14:32:48.503Z,35.40
2018-06-28T14:35:16.945Z,34.80
2018-06-28T14:37:45.404Z,34.50
2018-06-28T14:40:13.864Z,33.90
2018-06-28T14:42:42.285Z,33.40
2018-06-28T14:45:10.737Z,33.50
2018-06-28T14:47:39.137Z,33.20
2018-06-28T14:50:07.577Z,33.30
2018-06-28T14:52:36.001Z,33.30
2018-06-28T14:55:05.105Z,33.80
2018-06-28T14:57:33.550Z,33.40
2018-06-28T15:00:01.925Z,34.10
2018-06-28T15:02:30.330Z,34.10
2018-06-28T15:04:58.804Z,34.10
2018-06-28T15:07:27.263Z,34.30
2018-06-28T15:09:55.633Z,34.60
2018-06-28T15:12:24.094Z,35.10
2018-06-28T15:14:52.463Z,35.10
2018-06-28T15:17:20.868Z,35.00
2018-06-28T15:19:49.241Z,35.00
2018-06-28T15:22:17.643Z,34.90
2018-06-28T15:24:46.028Z,35.00
2018-06-28T15:27:14.410Z,35.30
2018-06-28T15:29:43.238Z,35.40
2018-06-28T15:32:11.641Z,35.20
2018-06-28T15:34:40.042Z,34.40
2018-06-28T15:37:08.464Z,34.60
2018-06-28T15:39:36.879Z,34.60
2018-06-28T15:42:05.265Z,34.30
2018-06-28T15:44:33.634Z,34.60
2018-06-28T15:47:02.027Z,34.70
2018-06-28T15:49:30.447Z,34.50
2018-06-28T15:51:58.813Z,33.90
2018-06-28T15:54:27.253Z,34.00
2018-06-28T15:56:55.640Z,34.20
2018-06-28T15:59:24.047Z,34.00
2018-06-28T16:01:52.448Z,34.10
2018-06-28T16:04:20.820Z,34.10
2018-06-28T16:06:49.218Z,34.00
2018-06-28T16:09:17.627Z,34.20
2018-06-28T16:11:46.013Z,34.20
2018-06-28T16:14:14.407Z,34.60
2018-06-28T16:16:42.825Z,34.30
2018-06-28T16:19:11.284Z,34.40
2018-06-28T16:21:39.773Z,34.90
2018-06-28T16:24:08.205Z,35.00
2018-06-28T16:26:36.579Z,35.10
2018-06-28T16:29:05.112Z,35.40
2018-06-28T16:31:33.473Z,35.20
2018-06-28T16:34:01.937Z,35.30
2018-06-28T16:36:30.253Z,34.90
2018-06-28T16:38:58.673Z,35.20
2018-06-28T16:41:27.042Z,35.50
2018-06-28T16:43:55.426Z,35.50
2018-06-28T16:46:23.904Z,35.30
2018-06-28T16:48:52.665Z,35.50
2018-06-28T16:51:21.114Z,35.40
2018-06-28T16:53:49.479Z,34.80
2018-06-28T16:56:17.891Z,35.30
2018-06-28T16:58:46.220Z,35.30
2018-06-28T17:01:14.796Z,35.20
2018-06-28T17:03:43.157Z,35.50
2018-06-28T17:06:11.552Z,35.60
2018-06-28T17:08:39.909Z,35.70
2018-06-28T17:11:08.347Z,36.00
2018-06-28T17:13:36.727Z,36.40
2018-06-28T17:16:05.167Z,36.50
2018-06-28T17:18:33.523Z,36.80
2018-06-28T17:21:01.929Z,37.00
2018-06-28T17:23:30.486Z,37.20
2018-06-28T17:25:58.852Z,37.30
2018-06-28T17:28:27.201Z,37.50
2018-06-28T17:33:23.744Z,37.50
2018-06-28T17:35:52.136Z,37.50
2018-06-28T17:38:20.552Z,37.00
2018-06-28T17:40:48.933Z,36.70
2018-06-28T17:43:17.299Z,36.70
2018-06-28T17:45:45.908Z,36.40
2018-06-28T17:48:14.265Z,36.40
2018-06-28T17:50:42.824Z,36.40
2018-06-28T17:53:11.216Z,36.70
2018-06-28T17:55:39.606Z,36.90
2018-06-28T17:58:07.994Z,37.10
2018-06-28T18:00:36.477Z,37.10
2018-06-28T18:03:04.864Z,36.80
2018-06-28T18:05:33.248Z,37.10
2018-06-28T18:08:01.648Z,37.40
2018-06-28T18:10:30.034Z,37.50
2018-06-28T18:12:58.490Z,37.60
2018-06-28T18:15:26.872Z,37.60
2018-06-28T18:17:55.263Z,37.50
2018-06-28T18:20:23.703Z,37.40
2018-06-28T18:22:52.128Z,37.60
2018-06-28T18:25:20.494Z,38.40
2018-06-28T18:27:48.917Z,37.80
2018-06-28T18:30:17.330Z,37.90
2018-06-28T18:32:45.744Z,37.90
2018-06-28T18:35:14.191Z,37.70
2018-06-28T18:37:42.566Z,37.50
2018-06-28T18:40:10.951Z,37.80
2018-06-28T18:42:40.068Z,37.60
2018-06-28T18:45:08.604Z,37.80
2018-06-28T18:47:36.971Z,37.70
2018-06-28T18:50:05.371Z,38.60
2018-06-28T18:55:01.906Z,38.30
2018-06-28T18:57:30.290Z,38.40
2018-06-28T18:59:58.728Z,38.70
2018-06-28T19:02:27.162Z,38.90
2018-06-28T19:04:55.583Z,39.10
2018-06-28T19:07:24.058Z,39.30
2018-06-28T19:09:57.886Z,39.50
2018-06-28T19:12:26.422Z,39.60
2018-06-28T19:15:00.223Z,39.90
2018-06-28T19:17:28.613Z,40.10
2018-06-28T19:19:57.025Z,40.40
2018-06-28T19:22:31.297Z,40.70
2018-06-28T19:27:28.080Z,41.00
2018-06-28T19:30:02.005Z,41.20
2018-06-28T19:32:31.230Z,41.60
2018-06-28T19:35:00.409Z,41.70
2018-06-28T19:37:34.102Z,41.90
2018-06-28T19:40:07.824Z,42.80
2018-06-28T19:42:41.799Z,42.40
2018-06-28T19:45:10.190Z,42.50
2018-06-28T19:47:38.638Z,42.70
2018-06-28T19:51:12.457Z,42.90
2018-06-28T19:53:40.920Z,43.10
2018-06-28T19:56:09.332Z,43.10
2018-06-28T19:58:38.039Z,43.40
2018-06-28T20:01:11.819Z,43.60
2018-06-28T20:03:45.791Z,43.60
2018-06-28T20:06:14.289Z,43.70
2018-06-28T20:08:42.922Z,43.80
2018-06-28T20:11:11.306Z,44.00
2018-06-28T20:14:42.625Z,44.10
2018-06-28T20:17:16.483Z,44.30
2018-06-28T20:19:50.258Z,44.50
2018-06-28T20:22:18.696Z,44.70
2018-06-28T20:24:47.228Z,44.90
2018-06-28T20:27:21.135Z,44.90
2018-06-28T20:29:55.051Z,45.00
2018-06-28T20:32:28.700Z,45.00
2018-06-28T20:34:57.216Z,45.20
2018-06-28T20:37:25.616Z,45.40
2018-06-28T20:39:54.176Z,45.70
2018-06-28T20:42:22.594Z,45.80
2018-06-28T20:44:51.006Z,46.00
2018-06-28T20:47:19.370Z,46.20
2018-06-28T20:49:47.784Z,46.10
2018-06-28T20:52:16.335Z,46.20
2018-06-28T20:54:44.882Z,46.20
2018-06-28T20:57:13.392Z,46.30
2018-06-28T20:59:41.773Z,46.40
2018-06-28T21:02:10.338Z,46.60
2018-06-28T21:04:38.826Z,46.70
2018-06-28T21:07:07.299Z,46.90
2018-06-28T21:09:35.671Z,47.00
2018-06-28T21:12:04.132Z,47.30
2018-06-28T21:14:32.512Z,47.50
2018-06-28T21:17:00.938Z,47.60
2018-06-28T21:19:29.402Z,47.80
2018-06-28T21:21:57.820Z,47.90
2018-06-28T21:24:26.789Z,48.00
2018-06-28T21:26:55.245Z,48.20
2018-06-28T21:29:23.674Z,48.40
2018-06-28T21:31:52.151Z,48.50
2018-06-28T21:34:21.355Z,48.90
2018-06-28T21:36:49.714Z,49.20
2018-06-28T21:39:18.196Z,49.50
2018-06-28T21:41:46.659Z,49.80
2018-06-28T21:44:15.019Z,50.00
2018-06-28T21:46:43.387Z,50.20
2018-06-28T21:51:40.419Z,50.80
2018-06-28T21:54:08.806Z,51.00
2018-06-28T21:56:37.161Z,51.20
2018-06-28T21:59:06.893Z,51.30
2018-06-28T22:01:35.319Z,51.50
2018-06-28T22:04:03.679Z,51.90
2018-06-28T22:09:00.279Z,52.30
2018-06-28T22:11:28.692Z,52.50
2018-06-28T22:13:57.129Z,52.60
2018-06-28T22:16:25.575Z,52.70
2018-06-28T22:18:53.955Z,53.00
2018-06-28T22:21:22.339Z,53.10
2018-06-28T22:23:50.769Z,53.20
2018-06-28T22:26:19.144Z,53.50
2018-06-28T22:28:47.517Z,53.70
2018-06-28T22:31:15.880Z,53.80
2018-06-28T22:33:44.263Z,53.90
2018-06-28T22:36:12.672Z,54.10
2018-06-28T22:38:41.066Z,54.30
2018-06-28T22:41:09.420Z,54.50
2018-06-28T22:43:37.840Z,54.70
2018-06-28T22:46:06.247Z,54.70
2018-06-28T22:48:34.673Z,54.90
2018-06-28T22:51:03.058Z,55.00
2018-06-28T22:53:31.441Z,55.30
2018-06-28T22:55:59.856Z,55.40
2018-06-28T22:58:28.228Z,55.70
2018-06-28T23:00:56.653Z,55.80
2018-06-28T23:03:25.371Z,55.80
2018-06-28T23:05:53.735Z,55.70
2018-06-28T23:08:22.343Z,55.80
2018-06-28T23:10:51.087Z,56.00
2018-06-28T23:13:19.580Z,56.10
2018-06-28T23:15:48.059Z,56.20
2018-06-28T23:18:16.460Z,56.30
2018-06-28T23:20:44.827Z,56.40
2018-06-28T23:23:13.299Z,56.60
2018-06-28T23:25:41.677Z,56.80
2018-06-28T23:28:10.035Z,57.00
2018-06-28T23:30:38.448Z,57.20
2018-06-28T23:33:06.883Z,57.30
2018-06-28T23:35:35.270Z,57.40
2018-06-28T23:38:03.670Z,58.10
2018-06-28T23:40:32.051Z,57.40
2018-06-28T23:43:00.450Z,57.90
2018-06-28T23:45:28.858Z,57.50
2018-06-28T23:47:57.259Z,57.40
2018-06-28T23:50:25.735Z,57.50
2018-06-28T23:52:54.175Z,57.50
2018-06-28T23:55:22.697Z,57.50
2018-06-28T23:57:51.011Z,57.60
